.
WxDataArchive / Data Records for 2013-02-03
2013-02-02 February 2013 2013-02-04

Data Records for Sunday, 03 February 2013

Time	Temp	Chill	HIndex	Humid	Dewpt	 Wind 	HiWind	WindDir	Rain 	Barom 
-----	----	-----	------	-----	-----	------	------	-------	-----	----- 
00:00	17.8	17.8	17.8	77	11.8	0	1	292	0.00	30.046 
00:05	17.7	17.7	17.7	77	11.7	0	1	292	0.00	30.046 
00:10	17.7	17.7	17.7	77	11.7	0	0	---	0.00	30.046 
00:15	17.7	17.7	17.7	77	11.7	0	1	292	0.00	30.042 
00:20	17.5	17.5	17.5	77	11.5	0	1	292	0.00	30.042 
00:25	17.5	17.5	17.5	76	11.3	0	0	---	0.00	30.042 
00:30	17.5	17.5	17.5	76	11.3	0	0	---	0.00	30.042 
00:35	17.5	17.5	17.5	75	11.0	0	0	---	0.00	30.042 
00:40	17.3	17.3	17.3	75	10.8	0	0	---	0.00	30.042 
00:45	17.3	17.3	17.3	75	10.8	0	0	---	0.00	30.037 
00:50	17.3	17.3	17.3	75	10.8	0	0	---	0.00	30.037 
00:55	17.3	17.3	17.3	75	10.8	0	0	---	0.00	30.037 
01:00	17.3	17.3	17.3	75	10.8	0	0	---	0.00	30.036 
01:05	17.3	17.3	17.3	75	10.8	0	0	---	0.00	30.036 
01:10	17.3	17.3	17.3	75	10.8	0	0	---	0.00	30.036 
01:15	17.2	17.2	17.2	75	10.7	0	0	---	0.00	30.032 
01:20	17.2	17.2	17.2	75	10.7	0	1	292	0.00	30.032 
01:25	17.2	17.2	17.2	75	10.7	0	0	---	0.00	30.032 
01:30	17.2	17.2	17.2	75	10.7	0	0	---	0.00	30.029 
01:35	17.2	17.2	17.2	75	10.7	0	0	---	0.00	30.029 
01:40	17.2	17.2	17.2	75	10.7	0	0	---	0.00	30.029 
01:45	17.0	17.0	17.0	75	10.5	0	0	---	0.00	30.018 
01:50	17.0	17.0	17.0	75	10.5	0	0	---	0.00	30.018 
01:55	17.0	17.0	17.0	75	10.5	0	0	---	0.00	30.018 
02:00	17.0	17.0	17.0	75	10.5	0	0	---	0.00	30.015 
02:05	16.9	16.9	16.9	75	10.4	0	0	---	0.00	30.015 
02:10	16.9	16.9	16.9	75	10.4	0	0	---	0.00	30.015 
02:15	16.9	16.9	16.9	75	10.4	0	0	---	0.00	30.011 
02:20	16.9	16.9	16.9	75	10.4	0	0	---	0.00	30.011 
02:25	16.9	16.9	16.9	75	10.4	0	0	---	0.00	30.011 
02:30	16.9	16.9	16.9	75	10.4	0	0	---	0.00	30.011 
02:35	16.9	16.9	16.9	76	10.7	0	0	---	0.00	30.011 
02:40	16.7	16.7	16.7	76	10.5	0	0	---	0.00	30.011 
02:45	16.7	16.7	16.7	76	10.5	0	0	---	0.00	30.002 
02:50	16.7	16.7	16.7	77	10.8	0	0	---	0.00	30.002 
02:55	16.5	16.5	16.5	77	10.6	0	0	---	0.00	30.002 
03:00	16.4	16.4	16.4	77	10.5	0	0	---	0.00	30.006 
03:05	16.2	16.2	16.2	78	10.6	0	0	---	0.00	30.006 
03:10	16.1	16.1	16.1	78	10.5	0	0	---	0.00	30.006 
03:15	16.1	16.1	16.1	78	10.5	0	0	---	0.00	30.001 
03:20	15.9	15.9	15.9	79	10.6	0	0	---	0.00	30.001 
03:25	15.7	15.7	15.7	79	10.4	0	0	---	0.00	30.001 
03:30	15.7	15.7	15.7	79	10.4	0	0	---	0.00	29.997 
03:35	15.6	15.6	15.6	80	10.6	0	0	---	0.00	29.997 
03:40	15.6	15.6	15.6	80	10.6	0	0	---	0.00	29.997 
03:45	15.6	15.6	15.6	81	10.8	0	0	---	0.00	29.991 
03:50	15.4	15.4	15.4	81	10.6	0	0	---	0.00	29.991 
03:55	15.4	15.4	15.4	81	10.6	0	0	---	0.00	29.991 
04:00	15.4	15.4	15.4	81	10.6	0	0	---	0.00	29.983 
04:05	15.4	15.4	15.4	81	10.6	0	0	---	0.00	29.983 
04:10	15.4	15.4	15.4	82	10.9	0	0	---	0.00	29.983 
04:15	15.4	15.4	15.4	82	10.9	0	0	---	0.00	29.976 
04:20	15.4	15.4	15.4	82	10.9	0	0	---	0.00	29.976 
04:25	15.4	15.4	15.4	82	10.9	0	0	---	0.00	29.976 
04:30	15.4	15.4	15.4	82	10.9	0	0	---	0.00	29.969 
04:35	15.4	15.4	15.4	82	10.9	0	0	---	0.00	29.969 
04:40	15.4	15.4	15.4	83	11.2	0	0	---	0.00	29.969 
04:45	15.4	15.4	15.4	83	11.2	0	0	---	0.00	29.969 
04:50	15.4	15.4	15.4	83	11.2	0	0	---	0.00	29.969 
04:55	15.4	15.4	15.4	83	11.2	0	0	---	0.00	29.969 
05:00	15.4	15.4	15.4	83	11.2	0	0	---	0.00	29.968 
05:05	15.4	15.4	15.4	83	11.2	0	0	---	0.00	29.968 
05:10	15.4	15.4	15.4	83	11.2	0	0	---	0.00	29.968 
05:15	15.4	15.4	15.4	83	11.2	0	0	---	0.00	29.965 
05:20	15.4	15.4	15.4	83	11.2	0	0	---	0.00	29.965 
05:25	15.4	15.4	15.4	83	11.2	0	0	---	0.00	29.965 
05:30	15.4	15.4	15.4	83	11.2	0	0	---	0.00	29.964 
05:35	15.4	15.4	15.4	83	11.2	0	0	---	0.00	29.964 
05:40	15.4	15.4	15.4	83	11.2	0	0	---	0.00	29.964 
05:45	15.6	15.6	15.6	83	11.4	0	0	---	0.00	29.963 
05:50	15.6	15.6	15.6	83	11.4	0	0	---	0.00	29.963 
05:55	15.4	15.4	15.4	83	11.2	0	0	---	0.00	29.963 
06:00	15.4	15.4	15.4	83	11.2	0	0	---	0.00	29.957 
06:05	15.4	15.4	15.4	83	11.2	0	0	---	0.00	29.957 
06:10	15.4	15.4	15.4	83	11.2	0	0	---	0.00	29.957 
06:15	15.4	15.4	15.4	83	11.2	0	0	---	0.00	29.969 
06:20	15.4	15.4	15.4	83	11.2	0	0	---	0.00	29.969 
06:25	15.4	15.4	15.4	83	11.2	0	0	---	0.00	29.969 
06:30	15.4	15.4	15.4	83	11.2	0	0	---	0.00	29.967 
06:35	15.4	15.4	15.4	83	11.2	0	0	---	0.00	29.967 
06:40	15.6	15.6	15.6	83	11.4	0	0	---	0.00	29.967 
06:45	15.6	15.6	15.6	83	11.4	0	0	---	0.00	29.964 
06:50	15.6	15.6	15.6	83	11.4	0	0	---	0.00	29.964 
06:55	15.6	15.6	15.6	83	11.4	0	0	---	0.00	29.964 
07:00	15.6	15.6	15.6	84	11.6	0	0	---	0.00	29.960 
07:05	15.6	15.6	15.6	84	11.6	0	0	---	0.00	29.960 
07:10	15.6	15.6	15.6	84	11.6	0	0	---	0.00	29.960 
07:15	15.6	15.6	15.6	84	11.6	0	0	---	0.00	29.964 
07:20	15.6	15.6	15.6	84	11.6	0	0	---	0.00	29.964 
07:25	15.6	15.6	15.6	84	11.6	0	0	---	0.00	29.964 
07:30	15.6	15.6	15.6	84	11.6	0	0	---	0.00	29.964 
07:35	15.6	15.6	15.6	84	11.6	0	0	---	0.00	29.964 
07:40	15.6	15.6	15.6	84	11.6	0	0	---	0.00	29.964 
07:45	15.6	15.6	15.6	84	11.6	0	0	---	0.00	29.962 
07:50	15.6	15.6	15.6	84	11.6	0	0	---	0.00	29.962 
07:55	15.6	15.6	15.6	84	11.6	0	0	---	0.00	29.962 
08:00	15.6	15.6	15.6	85	11.9	0	0	---	0.00	29.959 
08:05	15.6	15.6	15.6	85	11.9	0	0	---	0.00	29.959 
08:10	15.7	15.7	15.7	85	12.0	0	0	---	0.00	29.959 
08:15	15.9	15.9	15.9	85	12.2	0	1	292	0.00	29.969 
08:20	15.9	15.9	15.9	85	12.2	0	1	292	0.00	29.969 
08:25	16.1	16.1	16.1	85	12.4	0	1	292	0.00	29.969 
08:30	16.1	16.1	16.1	84	12.1	0	1	292	0.00	29.979 
08:35	16.1	16.1	16.1	84	12.1	0	2	292	0.00	29.979 
08:40	15.9	15.9	15.9	84	11.9	0	2	292	0.00	29.979 
08:45	15.9	15.9	15.9	84	11.9	0	3	292	0.00	29.989 
08:50	15.9	15.9	15.9	84	11.9	0	3	292	0.00	29.989 
08:55	15.9	15.9	15.9	83	11.7	0	1	292	0.00	29.989 
09:00	16.1	16.1	16.1	83	11.9	0	2	292	0.00	29.989 
09:05	15.9	15.9	15.9	83	11.7	1	3	292	0.00	29.989 
09:10	15.7	15.7	15.7	83	11.5	1	2	292	0.00	29.989 
09:15	15.9	15.9	15.9	83	11.7	0	3	292	0.00	29.989 
09:20	15.9	15.9	15.9	83	11.7	1	3	292	0.00	29.989 
09:25	15.7	15.7	15.7	82	11.2	1	3	270	0.00	29.989 
09:30	15.6	15.6	15.6	82	11.1	1	2	270	0.00	29.990 
09:35	15.7	15.7	15.7	82	11.2	0	2	270	0.00	29.990 
09:40	15.7	15.7	15.7	82	11.2	1	3	270	0.00	29.990 
09:45	15.6	15.6	15.6	81	10.8	1	4	270	0.00	29.988 
09:50	15.6	15.6	15.6	81	10.8	1	4	248	0.00	29.988 
09:55	15.6	15.6	15.6	81	10.8	1	3	248	0.00	29.988 
10:00	15.6	15.6	15.6	81	10.8	1	4	248	0.00	29.989 
10:05	15.6	15.6	15.6	80	10.6	1	4	248	0.00	29.989 
10:10	15.4	15.4	15.4	80	10.4	1	3	248	0.00	29.989 
10:15	15.4	15.4	15.4	80	10.4	1	5	248	0.00	29.991 
10:20	15.6	15.6	15.6	79	10.3	1	3	248	0.00	29.991 
10:25	15.7	15.7	15.7	79	10.4	1	3	248	0.00	29.991 
10:30	16.1	16.1	16.1	78	10.5	1	4	248	0.00	29.988 
10:35	16.1	16.1	16.1	77	10.2	1	3	248	0.00	29.988 
10:40	16.2	16.2	16.2	77	10.3	1	4	248	0.00	29.988 
10:45	16.2	16.2	16.2	76	10.0	1	3	248	0.00	29.987 
10:50	16.2	16.2	16.2	75	9.7	1	3	248	0.00	29.987 
10:55	16.2	16.2	16.2	75	9.7	1	2	292	0.00	29.987 
11:00	16.2	16.2	16.2	74	9.4	2	4	248	0.00	29.988 
11:05	16.4	16.4	16.4	73	9.3	1	3	270	0.00	29.988 
11:10	16.5	16.5	16.5	73	9.4	2	4	248	0.00	29.988 
11:15	16.7	16.7	16.7	73	9.6	1	4	248	0.00	29.984 
11:20	16.9	16.9	16.9	73	9.8	1	4	248	0.00	29.984 
11:25	16.9	16.9	16.9	72	9.5	1	3	248	0.00	29.984 
11:30	17.0	17.0	17.0	72	9.6	1	3	248	0.00	29.987 
11:35	17.2	17.2	17.2	70	9.1	1	4	248	0.00	29.987 
11:40	17.0	17.0	17.0	70	8.9	0	2	248	0.00	29.987 
11:45	17.2	17.2	17.2	70	9.1	1	3	248	0.00	29.986 
11:50	17.2	17.2	17.2	69	8.8	1	3	248	0.00	29.986 
11:55	17.0	17.0	17.0	69	8.6	1	2	248	0.00	29.986 
12:00	17.0	17.0	17.0	69	8.6	1	4	292	0.00	29.986 
12:05	17.0	17.0	17.0	69	8.6	1	4	270	0.00	29.986 
12:10	17.0	17.0	17.0	69	8.6	1	3	270	0.00	29.986 
12:15	17.0	17.0	17.0	69	8.6	1	3	270	0.00	29.987 
12:20	17.2	17.2	17.2	69	8.8	1	4	248	0.00	29.987 
12:25	17.0	17.0	17.0	68	8.3	2	3	248	0.00	29.987 
12:30	17.2	17.2	17.2	69	8.8	1	4	248	0.00	29.982 
12:35	17.2	17.2	17.2	68	8.5	1	3	248	0.00	29.982 
12:40	17.5	17.5	17.5	69	9.1	1	3	248	0.00	29.982 
12:45	17.8	17.8	17.8	68	9.1	2	6	248	0.00	29.981 
12:50	17.8	17.8	17.8	68	9.1	1	3	248	0.00	29.981 
12:55	17.8	17.8	17.8	68	9.1	2	5	270	0.00	29.981 
13:00	17.8	17.8	17.8	68	9.1	1	4	248	0.00	29.975 
13:05	18.0	18.0	18.0	69	9.6	2	4	248	0.00	29.975 
13:10	18.0	18.0	18.0	68	9.2	2	5	248	0.00	29.975 
13:15	18.0	18.0	18.0	68	9.2	2	5	248	0.00	29.974 
13:20	18.0	18.0	18.0	69	9.6	2	6	248	0.00	29.974 
13:25	18.1	18.1	18.1	69	9.7	2	4	248	0.00	29.974 
13:30	18.3	18.3	18.3	69	9.9	2	4	270	0.00	29.975 
13:35	18.4	18.4	18.4	69	10.0	2	6	248	0.00	29.975 
13:40	18.8	18.8	18.8	69	10.3	2	6	248	0.00	29.975 
13:45	18.9	18.9	18.9	68	10.1	3	6	270	0.00	29.974 
13:50	19.1	19.1	19.1	68	10.3	2	5	248	0.00	29.974 
13:55	18.9	18.9	18.9	68	10.1	2	5	248	0.00	29.974 
14:00	19.2	19.2	19.2	68	10.4	3	5	248	0.00	29.977 
14:05	19.4	19.4	19.4	68	10.6	2	5	248	0.00	29.977 
14:10	19.4	19.4	19.4	67	10.3	2	6	248	0.00	29.977 
14:15	19.5	19.5	19.5	67	10.4	2	6	248	0.00	29.973 
14:20	19.7	19.7	19.7	67	10.5	2	4	248	0.00	29.973 
14:25	19.9	19.9	19.9	67	10.7	1	5	248	0.00	29.973 
14:30	20.3	20.3	20.3	67	11.1	2	7	248	0.00	29.975 
14:35	20.3	20.3	20.3	67	11.1	2	5	248	0.00	29.975 
14:40	20.2	20.2	20.2	66	10.7	2	6	248	0.00	29.975 
14:45	20.0	20.0	20.0	67	10.8	3	9	248	0.00	29.982 
14:50	20.0	20.0	20.0	67	10.8	2	4	248	0.00	29.982 
14:55	20.3	20.3	20.3	68	11.5	2	4	248	0.00	29.982 
15:00	20.5	20.5	20.5	68	11.6	2	5	248	0.00	29.987 
15:05	20.6	20.6	20.6	67	11.4	2	6	248	0.00	29.987 
15:10	20.8	20.8	20.8	67	11.6	2	7	248	0.00	29.987 
15:15	21.0	21.0	21.0	67	11.8	2	5	270	0.00	29.993 
15:20	20.8	20.8	20.8	67	11.6	2	5	270	0.00	29.993 
15:25	21.0	21.0	21.0	67	11.8	2	9	270	0.00	29.993 
15:30	21.0	21.0	21.0	66	11.5	3	11	248	0.00	30.003 
15:35	21.0	21.0	21.0	67	11.8	2	6	248	0.00	30.003 
15:40	21.1	21.1	21.1	67	11.9	3	7	248	0.00	30.003 
15:45	21.3	21.3	21.3	68	12.4	2	6	248	0.00	30.001 
15:50	21.4	21.4	21.4	68	12.5	2	5	248	0.00	30.001 
15:55	21.6	21.6	21.6	68	12.7	3	9	248	0.00	30.001 
16:00	21.8	21.8	21.8	68	12.9	2	6	248	0.00	30.004 
16:05	21.8	21.8	21.8	68	12.9	3	9	248	0.00	30.004 
16:10	21.6	21.6	21.6	68	12.7	2	5	248	0.00	30.004 
16:15	21.4	21.4	21.4	69	12.8	3	7	248	0.00	30.010 
16:20	21.1	21.1	21.1	69	12.5	3	7	248	0.00	30.010 
16:25	21.3	21.3	21.3	70	13.1	2	7	248	0.00	30.010 
16:30	21.3	21.3	21.3	71	13.4	2	5	248	0.00	30.015 
16:35	21.3	21.3	21.3	71	13.4	3	10	248	0.00	30.015 
16:40	21.0	21.0	21.0	71	13.1	3	9	248	0.00	30.015 
16:45	20.6	20.6	20.6	72	13.0	3	9	248	0.00	30.017 
16:50	20.5	20.5	20.5	73	13.2	3	7	270	0.00	30.017 
16:55	20.5	20.5	20.5	73	13.2	3	9	248	0.00	30.017 
17:00	20.3	20.3	20.3	73	13.1	3	7	248	0.00	30.021 
17:05	20.5	20.5	20.5	73	13.2	2	7	248	0.00	30.021 
17:10	20.3	20.3	20.3	73	13.1	3	6	248	0.00	30.021 
17:15	20.3	20.3	20.3	73	13.1	2	6	270	0.00	30.026 
17:20	20.3	20.3	20.3	72	12.7	3	6	248	0.00	30.026 
17:25	20.2	20.2	20.2	71	12.3	3	7	248	0.00	30.026 
17:30	20.0	20.0	20.0	71	12.1	3	6	270	0.00	30.031 
17:35	19.9	19.9	19.9	70	11.7	2	4	270	0.00	30.031 
17:40	19.7	19.7	19.7	71	11.8	2	4	270	0.00	30.031 
17:45	19.5	19.5	19.5	71	11.7	1	3	248	0.00	30.037 
17:50	19.4	19.4	19.4	71	11.6	2	4	248	0.00	30.037 
17:55	19.2	19.2	19.2	72	11.7	1	3	248	0.00	30.037 
18:00	19.1	19.1	19.1	73	11.9	2	5	248	0.00	30.038 
18:05	18.9	18.9	18.9	73	11.7	1	3	248	0.00	30.038 
18:10	18.9	18.9	18.9	74	12.0	1	3	248	0.00	30.038 
18:15	18.8	18.8	18.8	74	11.9	1	4	248	0.00	30.041 
18:20	18.8	18.8	18.8	74	11.9	1	3	248	0.00	30.041 
18:25	18.6	18.6	18.6	74	11.7	1	3	248	0.00	30.041 
18:30	18.6	18.6	18.6	75	12.0	1	4	248	0.00	30.046 
18:35	18.4	18.4	18.4	75	11.8	1	3	248	0.00	30.046 
18:40	18.4	18.4	18.4	75	11.8	1	4	248	0.00	30.046 
18:45	18.4	18.4	18.4	75	11.8	0	2	248	0.00	30.052 
18:50	18.3	18.3	18.3	75	11.7	0	3	248	0.00	30.052 
18:55	18.3	18.3	18.3	75	11.7	0	2	248	0.00	30.052 
19:00	18.3	18.3	18.3	76	12.0	1	3	248	0.00	30.052 
19:05	18.3	18.3	18.3	76	12.0	1	3	248	0.00	30.052 
19:10	18.3	18.3	18.3	76	12.0	0	3	248	0.00	30.052 
19:15	18.3	18.3	18.3	76	12.0	1	4	248	0.00	30.063 
19:20	18.4	18.4	18.4	77	12.4	1	3	248	0.00	30.063 
19:25	18.4	18.4	18.4	77	12.4	0	2	248	0.00	30.063 
19:30	18.4	18.4	18.4	77	12.4	0	2	248	0.00	30.068 
19:35	18.6	18.6	18.6	77	12.6	1	4	248	0.00	30.068 
19:40	18.9	18.9	18.9	77	12.9	1	5	248	0.00	30.068 
19:45	19.1	19.1	19.1	77	13.1	1	4	248	0.00	30.069 
19:50	19.2	19.2	19.2	77	13.2	2	4	248	0.00	30.069 
19:55	19.4	19.4	19.4	77	13.4	1	3	270	0.00	30.069 
20:00	19.4	19.4	19.4	76	13.1	0	2	270	0.00	30.070 
20:05	19.4	19.4	19.4	76	13.1	1	4	248	0.00	30.070 
20:10	19.5	19.5	19.5	77	13.5	1	3	270	0.00	30.070 
20:15	19.5	19.5	19.5	77	13.5	0	3	270	0.00	30.069 
20:20	19.5	19.5	19.5	77	13.5	0	2	270	0.00	30.069 
20:25	19.5	19.5	19.5	77	13.5	1	5	248	0.00	30.069 
20:30	19.5	19.5	19.5	77	13.5	1	5	248	0.00	30.070 
20:35	19.5	19.5	19.5	77	13.5	1	3	248	0.00	30.070 
20:40	19.5	19.5	19.5	78	13.8	1	4	248	0.00	30.070 
20:45	19.5	19.5	19.5	78	13.8	1	4	248	0.00	30.078 
20:50	19.5	19.5	19.5	78	13.8	1	3	248	0.00	30.078 
20:55	19.5	19.5	19.5	78	13.8	1	4	248	0.00	30.078 
21:00	19.4	19.4	19.4	78	13.7	1	3	248	0.00	30.083 
21:05	19.4	19.4	19.4	77	13.4	1	3	248	0.00	30.083 
21:10	19.2	19.2	19.2	77	13.2	1	4	248	0.00	30.083 
21:15	19.1	19.1	19.1	77	13.1	1	4	248	0.00	30.083 
21:20	19.1	19.1	19.1	76	12.8	0	3	248	0.00	30.083 
21:25	18.9	18.9	18.9	76	12.6	1	3	248	0.00	30.083 
21:30	18.8	18.8	18.8	75	12.2	0	2	248	0.00	30.084 
21:35	18.6	18.6	18.6	75	12.0	0	1	248	0.00	30.084 
21:40	18.4	18.4	18.4	75	11.8	0	2	248	0.00	30.084 
21:45	18.4	18.4	18.4	74	11.5	1	3	248	0.00	30.084 
21:50	18.3	18.3	18.3	74	11.4	1	3	248	0.00	30.084 
21:55	18.1	18.1	18.1	74	11.2	0	2	248	0.00	30.084 
22:00	18.1	18.1	18.1	74	11.2	1	3	248	0.00	30.088 
22:05	18.1	18.1	18.1	74	11.2	0	2	248	0.00	30.088 
22:10	18.0	18.0	18.0	74	11.1	0	2	248	0.00	30.088 
22:15	17.8	17.8	17.8	74	10.9	1	3	248	0.00	30.096 
22:20	17.8	17.8	17.8	74	10.9	0	2	248	0.00	30.096 
22:25	17.7	17.7	17.7	74	10.8	1	4	248	0.00	30.096 
22:30	17.7	17.7	17.7	74	10.8	0	3	248	0.00	30.090 
22:35	17.5	17.5	17.5	74	10.7	1	3	248	0.00	30.090 
22:40	17.5	17.5	17.5	75	11.0	0	2	248	0.00	30.090 
22:45	17.5	17.5	17.5	74	10.7	0	3	248	0.00	30.089 
22:50	17.3	17.3	17.3	74	10.5	0	2	248	0.00	30.089 
22:55	17.2	17.2	17.2	74	10.4	0	1	248	0.00	30.089 
23:00	16.9	16.9	16.9	74	10.1	0	0	---	0.00	30.091 
23:05	16.7	16.7	16.7	74	9.9	0	2	248	0.00	30.091 
23:10	16.2	16.2	16.2	74	9.4	0	1	248	0.00	30.091 
23:15	15.9	15.9	15.9	75	9.4	0	1	248	0.00	30.086 
23:20	15.7	15.7	15.7	75	9.2	0	0	---	0.00	30.086 
23:25	15.4	15.4	15.4	75	8.9	0	0	---	0.00	30.086 
23:30	15.1	15.1	15.1	76	8.9	0	1	248	0.00	30.090 
23:35	14.9	14.9	14.9	77	9.0	0	1	248	0.00	30.090 
23:40	15.1	15.1	15.1	77	9.2	0	3	248	0.00	30.090 
23:45	15.2	15.2	15.2	78	9.6	0	2	248	0.00	30.098 
23:50	15.2	15.2	15.2	78	9.6	0	2	248	0.00	30.098 
23:55	15.1	15.1	15.1	78	9.5	0	1	248	0.00	30.098 

CoCoRaHS
IN-AL-39
A2 Web Hosting
Creative Commons License
GoDaddy
search engine by freefind advanced

loaded 2018-11-17 05:39:52 • last modified 2010-11-18 10:43:29
Privacy PolicyDisclaimer
• wx.awcolley.com is powered by PmWiki v.2002016 •
• all content (unless otherwise noted) © 2018 A W Colley